Delta, Louisiana
Current Conditions -  °F | °C
As of 11:55 PM on Tuesday 21 Oct 2014 (Local Time) from KVKS Reporting Station
Haze Haze  
Wind Chill: 57°   Ceiling: 4200
Heat Index: 57°   Visibility: 1.2mi
Dew Point: 55°   Wind: 0mph
Humidity: 94%   Direction: NA
Pressure: 30.07"   Gusts: NA
Location:  32.33°N, 90.93°W
Report Text: KVKS 220455Z AUTO 00000KT 1 1/4SM BR SCT002 OVC042 14/13 A3007 RMK A01 VIS 1/2V4
Loading
Personal Weather Stations






























Interactive Weather Map New forecast layout! Learn more

10-Day Weather Forecast

Advertisements
Track Severe Weather on mobile